Time;durP1;ratioP1;P1;durP2;ratioP2;P2;SDS_P1;SDS_P2;PMS_P1;PMS_P2;Temp;Humidity;BMP_temperature;BMP_pressure;BME280_temperature;BME280_humidity;BME280_pressure;Samples;Min_cycle;Max_cycle;Signal;HPM_P1;HPM_P2
2022/12/10 00:01:16;;;;;;;17.50;10.57;;;-1.30;99.90;;;;;;5005380;28;20085;-69
2022/12/10 00:03:43;;;;;;;18.90;10.95;;;-1.40;99.90;;;;;;5033542;28;20506;-70
2022/12/10 00:06:15;;;;;;;19.73;11.80;;;-1.40;99.90;;;;;;5032750;28;20042;-69
2022/12/10 00:08:41;;;;;;;20.50;12.15;;;-1.50;99.90;;;;;;5016223;28;20401;-69
2022/12/10 00:11:10;;;;;;;21.08;11.38;;;-1.40;99.90;;;;;;5016585;28;20075;-69
2022/12/10 00:13:36;;;;;;;19.23;11.38;;;-1.50;99.90;;;;;;5018060;28;20129;-69
2022/12/10 00:16:04;;;;;;;19.48;11.52;;;-1.50;99.90;;;;;;5096518;28;20039;-69
2022/12/10 00:18:30;;;;;;;18.58;11.75;;;-1.50;99.90;;;;;;5119880;28;20052;-69
2022/12/10 00:20:55;;;;;;;17.55;11.30;;;-1.50;99.90;;;;;;5118678;28;20080;-69
2022/12/10 00:23:22;;;;;;;18.27;11.10;;;-1.60;99.90;;;;;;5120569;28;20051;-69
2022/12/10 00:25:49;;;;;;;19.38;12.23;;;-1.90;99.90;;;;;;5118968;28;20057;-69
2022/12/10 00:28:15;;;;;;;22.63;11.65;;;-1.70;99.90;;;;;;5119585;28;20063;-69
2022/12/10 00:30:40;;;;;;;19.55;11.23;;;-1.70;99.90;;;;;;5119984;28;20039;-69
2022/12/10 00:33:06;;;;;;;21.98;12.52;;;-1.70;99.90;;;;;;5117062;28;20415;-69
2022/12/10 00:35:35;;;;;;;20.80;12.15;;;-1.80;99.90;;;;;;5119793;28;20051;-69
2022/12/10 00:38:01;;;;;;;22.00;12.65;;;-1.70;99.90;;;;;;5117289;28;20105;-68
2022/12/10 00:40:26;;;;;;;22.33;12.60;;;-1.70;99.90;;;;;;5119032;28;20575;-68
2022/12/10 00:42:52;;;;;;;19.00;11.73;;;-1.70;99.90;;;;;;5081289;28;20057;-68
2022/12/10 00:45:18;;;;;;;22.42;12.95;;;-1.60;99.90;;;;;;5015147;28;20050;-69
2022/12/10 00:47:43;;;;;;;22.63;13.07;;;-1.60;99.90;;;;;;5014830;28;20050;-68
2022/12/10 00:50:09;;;;;;;22.80;12.93;;;-1.40;99.90;;;;;;5014018;28;20049;-69
2022/12/10 00:52:35;;;;;;;21.42;13.05;;;-1.00;99.90;;;;;;5017303;28;20046;-69
2022/12/10 00:55:00;;;;;;;22.63;13.13;;;-1.50;99.90;;;;;;5014759;28;20050;-69
2022/12/10 00:57:26;;;;;;;22.50;13.30;;;-1.50;99.90;;;;;;5014843;28;20096;-69
2022/12/10 00:59:52;;;;;;;23.05;12.65;;;-1.50;99.90;;;;;;5015281;28;20110;-69
2022/12/10 01:02:17;;;;;;;23.70;13.23;;;-1.50;99.90;;;;;;5014968;28;20615;-69
2022/12/10 01:04:43;;;;;;;23.90;13.45;;;-1.50;99.90;;;;;;5015833;28;20042;-69
2022/12/10 01:07:10;;;;;;;24.48;13.95;;;-1.40;99.90;;;;;;5028625;28;20161;-69
2022/12/10 01:09:36;;;;;;;24.27;12.80;;;-1.40;99.90;;;;;;5035199;28;20045;-68
2022/12/10 01:12:02;;;;;;;21.92;12.20;;;-1.40;99.90;;;;;;5032214;28;20137;-69
2022/12/10 01:14:31;;;;;;;24.15;12.95;;;-1.40;99.90;;;;;;5027093;28;20034;-69
2022/12/10 01:17:00;;;;;;;24.23;13.20;;;-1.10;99.90;;;;;;5013587;28;20081;-68
2022/12/10 01:19:25;;;;;;;23.05;13.10;;;-1.30;99.90;;;;;;5014470;28;20549;-69
2022/12/10 01:21:55;;;;;;;20.88;12.25;;;-1.10;99.90;;;;;;5014660;28;20061;-69
2022/12/10 01:24:23;;;;;;;23.05;12.88;;;-1.20;99.90;;;;;;5013508;28;20049;-69
2022/12/10 01:26:49;;;;;;;24.15;12.95;;;-1.20;99.90;;;;;;5015128;28;20073;-68
2022/12/10 01:29:15;;;;;;;24.42;14.48;;;-2.20;99.90;;;;;;5014004;28;20133;-69
2022/12/10 01:31:41;;;;;;;26.05;13.20;;;-1.20;99.90;;;;;;5016787;28;20067;-69
2022/12/10 01:34:11;;;;;;;24.38;13.65;;;-1.20;99.90;;;;;;4997076;28;20042;-69
2022/12/10 01:36:40;;;;;;;26.40;12.50;;;-1.20;99.90;;;;;;5014454;28;20079;-69
2022/12/10 01:39:08;;;;;;;26.58;14.32;;;-1.20;99.90;;;;;;5015775;28;20042;-69
2022/12/10 01:42:00;;;;;;;23.60;12.75;;;-1.10;99.90;;;;;;5013130;28;20081;-69
2022/12/10 01:44:26;;;;;;;21.63;12.63;;;-1.10;99.90;;;;;;5016913;28;20093;-69
2022/12/10 01:46:54;;;;;;;27.80;13.30;;;-1.10;99.90;;;;;;5013322;28;20545;-69
2022/12/10 01:49:27;;;;;;;25.52;13.57;;;-1.10;99.90;;;;;;5014166;28;20050;-69
2022/12/10 01:51:54;;;;;;;26.13;13.43;;;-1.10;99.90;;;;;;5014192;28;20038;-69
2022/12/10 01:54:22;;;;;;;29.33;13.88;;;-1.00;99.90;;;;;;5014460;28;20065;-69
2022/12/10 01:56:56;;;;;;;26.05;14.30;;;-1.00;99.90;;;;;;5015763;28;20049;-69
2022/12/10 01:59:25;;;;;;;24.70;13.75;;;-1.00;99.90;;;;;;5012691;28;20042;-69
2022/12/10 02:02:08;;;;;;;25.13;12.85;;;-1.00;99.90;;;;;;4998851;28;20064;-69
2022/12/10 02:04:40;;;;;;;30.88;14.70;;;-1.00;99.90;;;;;;5014808;28;20053;-68
2022/12/10 02:07:16;;;;;;;25.20;13.93;;;-1.00;99.90;;;;;;5082346;28;20048;-69
2022/12/10 02:09:46;;;;;;;;;;;-0.90;99.90;;;;;;5101585;28;20047;-69
2022/12/10 02:12:21;;;;;;;29.35;13.75;;;-0.90;99.90;;;;;;5116696;28;20430;-69
2022/12/10 02:15:14;;;;;;;28.17;14.27;;;-0.90;99.90;;;;;;5073923;28;20049;-69
2022/12/10 02:17:51;;;;;;;23.73;13.43;;;-0.80;99.90;;;;;;5044736;28;20147;-68
2022/12/10 02:20:34;;;;;;;26.27;12.85;;;-0.80;99.90;;;;;;5033434;28;20110;-69
2022/12/10 02:23:14;;;;;;;24.58;13.07;;;0.40;99.90;;;;;;5035643;28;20053;-69
2022/12/10 02:25:59;;;;;;;30.42;13.98;;;-0.70;99.90;;;;;;5032406;28;20412;-69
2022/12/10 02:28:36;;;;;;;27.77;13.13;;;-0.70;99.90;;;;;;5033278;28;20057;-69
2022/12/10 02:31:03;;;;;;;27.70;14.15;;;-0.70;99.90;;;;;;5034300;28;20595;-69
2022/12/10 02:33:30;;;;;;;24.00;14.00;;;-0.70;99.90;;;;;;5031461;28;20045;-69
2022/12/10 02:35:59;;;;;;;26.13;14.00;;;-0.70;99.90;;;;;;5017818;28;20259;-69
2022/12/10 02:38:29;;;;;;;26.80;14.02;;;-0.80;99.90;;;;;;5033445;28;20179;-68
2022/12/10 02:41:00;;;;;;;23.48;13.07;;;-0.80;99.90;;;;;;5033120;28;20057;-69
2022/12/10 02:43:28;;;;;;;23.80;12.50;;;-0.90;99.90;;;;;;5034864;28;20494;-68
2022/12/10 02:45:56;;;;;;;25.10;13.35;;;-0.90;99.90;;;;;;5031264;28;20042;-69
2022/12/10 02:48:23;;;;;;;28.63;14.18;;;-0.90;99.90;;;;;;5035074;28;20069;-69
2022/12/10 02:50:49;;;;;;;28.00;13.55;;;-0.80;99.90;;;;;;5031603;28;20105;-69
2022/12/10 02:53:14;;;;;;;25.55;14.68;;;-0.90;99.90;;;;;;5034932;28;20049;-69
2022/12/10 02:55:58;;;;;;;25.75;13.88;;;-0.90;99.90;;;;;;5033144;28;20838;-69
2022/12/10 02:58:43;;;;;;;26.75;13.75;;;-0.90;99.90;;;;;;5031190;28;20053;-69
2022/12/10 03:01:30;;;;;;;25.52;13.38;;;-1.00;99.90;;;;;;5033839;28;20077;-69
2022/12/10 03:04:01;;;;;;;25.88;14.05;;;-0.90;99.90;;;;;;5032556;28;20042;-69
2022/12/10 03:06:40;;;;;;;27.17;13.30;;;-1.00;99.90;;;;;;5067912;28;20047;-69
2022/12/10 03:09:28;;;;;;;26.58;13.35;;;-1.00;99.90;;;;;;5099472;28;20152;-67
2022/12/10 03:12:05;;;;;;;28.25;15.45;;;-1.00;99.90;;;;;;5114522;28;20157;-67
2022/12/10 03:14:33;;;;;;;25.48;14.45;;;-1.00;99.90;;;;;;5072697;28;20045;-67
2022/12/10 03:17:01;;;;;;;23.27;13.50;;;-1.00;99.90;;;;;;5011661;28;20062;-67
2022/12/10 03:19:40;;;;;;;24.25;13.30;;;-1.00;99.90;;;;;;5012851;28;20053;-67
2022/12/10 03:22:07;;;;;;;23.45;12.73;;;-1.00;99.90;;;;;;5013389;28;20045;-67
2022/12/10 03:24:35;;;;;;;24.25;12.90;;;-1.10;99.90;;;;;;5011541;28;20117;-67
2022/12/10 03:27:03;;;;;;;24.17;12.80;;;-1.00;99.90;;;;;;5013134;28;20095;-67
2022/12/10 03:29:37;;;;;;;27.40;14.57;;;-1.00;99.90;;;;;;5011368;28;20090;-67
2022/12/10 03:32:04;;;;;;;27.02;13.90;;;-1.00;99.90;;;;;;5013139;28;20056;-67
2022/12/10 03:34:29;;;;;;;22.15;12.88;;;-1.00;99.90;;;;;;4995882;28;20050;-67
2022/12/10 03:36:55;;;;;;;24.70;13.05;;;-1.10;99.90;;;;;;5012349;28;20053;-67
2022/12/10 03:39:22;;;;;;;26.88;14.23;;;-1.20;99.90;;;;;;5014829;28;20046;-67
2022/12/10 03:41:48;;;;;;;26.10;14.05;;;-1.20;99.90;;;;;;5109798;28;20122;-67
2022/12/10 03:44:13;;;;;;;25.52;14.07;;;-1.10;99.90;;;;;;5118122;28;20117;-67
2022/12/10 03:46:39;;;;;;;27.73;14.43;;;-1.20;99.90;;;;;;5114335;28;20054;-67
2022/12/10 03:49:06;;;;;;;29.85;14.85;;;-1.20;99.90;;;;;;5116164;28;20043;-67
2022/12/10 03:51:32;;;;;;;26.45;14.55;;;-1.20;99.90;;;;;;5115571;28;20069;-67
2022/12/10 03:53:57;;;;;;;24.95;13.80;;;-1.30;99.90;;;;;;5115830;28;20607;-67
2022/12/10 03:56:23;;;;;;;27.45;14.15;;;-1.20;99.90;;;;;;5116009;28;20036;-66
2022/12/10 03:58:49;;;;;;;26.48;14.52;;;-1.30;99.90;;;;;;5115595;28;20099;-67
2022/12/10 04:01:15;;;;;;;25.27;14.65;;;-0.90;99.90;;;;;;5099579;28;20043;-67
2022/12/10 04:03:42;;;;;;;26.83;15.68;;;-1.20;99.90;;;;;;5113994;28;20046;-67
2022/12/10 04:06:13;;;;;;;27.80;15.30;;;-1.30;99.90;;;;;;5088075;28;20056;-67
2022/12/10 04:08:38;;;;;;;28.10;14.25;;;-1.30;99.90;;;;;;5013479;28;20069;-67
2022/12/10 04:11:06;;;;;;;28.30;15.48;;;-1.30;99.90;;;;;;5015620;28;20042;-67
2022/12/10 04:16:26;;;;;;;30.73;14.53;;;-1.30;99.90;;;;;;5034951;28;20061;-67
2022/12/10 04:18:54;;;;;;;25.42;14.65;;;-1.40;99.90;;;;;;5035224;28;20045;-67
2022/12/10 04:26:52;;;;;;;27.83;15.10;;;-1.40;99.90;;;;;;5037014;28;20074;-66
2022/12/10 04:29:19;;;;;;;27.58;15.50;;;-1.40;99.90;;;;;;5033845;28;20417;-67
2022/12/10 04:31:45;;;;;;;29.58;15.90;;;-1.40;99.90;;;;;;5037267;28;20441;-67
2022/12/10 04:34:10;;;;;;;30.35;15.57;;;-0.40;99.90;;;;;;5034037;28;20071;-67
2022/12/10 04:36:36;;;;;;;28.25;16.10;;;-1.40;99.90;;;;;;5035049;28;20069;-67
2022/12/10 04:39:03;;;;;;;27.70;14.75;;;-1.50;99.90;;;;;;5034848;28;20064;-67
2022/12/10 04:41:28;;;;;;;28.30;14.30;;;-1.50;99.90;;;;;;5035013;28;20076;-67
2022/12/10 04:43:54;;;;;;;28.23;15.90;;;-1.50;99.90;;;;;;5035962;28;20038;-67
2022/12/10 04:46:20;;;;;;;27.88;14.50;;;-1.50;99.90;;;;;;5033026;28;20257;-67
2022/12/10 04:48:46;;;;;;;29.70;15.85;;;-1.50;99.90;;;;;;5036030;28;20080;-67
2022/12/10 04:51:12;;;;;;;25.25;14.52;;;-1.50;99.90;;;;;;5032580;28;20579;-66
2022/12/10 04:53:37;;;;;;;28.70;14.85;;;-1.50;99.90;;;;;;5033926;28;20046;-67
2022/12/10 04:56:05;;;;;;;26.80;14.35;;;-1.50;99.90;;;;;;5035403;28;20045;-67
2022/12/10 04:58:31;;;;;;;28.65;14.95;;;-1.60;99.90;;;;;;5034726;28;20045;-67
2022/12/10 05:01:09;;;;;;;27.65;14.73;;;-1.60;99.90;;;;;;5036689;28;20049;-66
2022/12/10 05:03:35;;;;;;;30.30;15.18;;;-1.70;99.90;;;;;;5034555;28;20049;-67
2022/12/10 05:06:02;;;;;;;25.80;15.35;;;-1.70;99.90;;;;;;5055248;28;20044;-67
2022/12/10 05:08:29;;;;;;;29.90;16.17;;;-1.70;99.90;;;;;;5118512;28;20050;-67
2022/12/10 05:10:54;;;;;;;34.00;16.38;;;-1.70;99.90;;;;;;5119475;28;20492;-67
2022/12/10 05:13:20;;;;;;;30.17;16.25;;;-1.70;99.90;;;;;;5119827;28;20487;-67
2022/12/10 05:15:46;;;;;;;28.02;15.95;;;-1.70;99.90;;;;;;5016132;28;20038;-67
2022/12/10 05:18:11;;;;;;;28.35;14.48;;;-1.70;99.90;;;;;;4997437;28;20118;-67
2022/12/10 05:20:37;;;;;;;33.95;15.77;;;-1.70;99.90;;;;;;4993232;28;20053;-67
2022/12/10 05:25:53;;;;;;;33.35;16.30;;;-1.60;99.90;;;;;;4994056;28;20042;-67
2022/12/10 05:28:20;;;;;;;30.77;17.05;;;-1.60;99.90;;;;;;5000523;28;20077;-67
2022/12/10 05:30:46;;;;;;;29.88;16.50;;;-1.60;99.90;;;;;;5119933;28;20036;-67
2022/12/10 05:33:12;;;;;;;33.28;15.73;;;-1.70;99.90;;;;;;5115861;28;20127;-67
2022/12/10 05:35:38;;;;;;;29.58;14.98;;;-1.70;99.90;;;;;;5118376;28;20044;-67
2022/12/10 05:38:05;;;;;;;32.25;16.45;;;-1.70;99.90;;;;;;5117458;28;20047;-67
2022/12/10 05:40:34;;;;;;;30.58;16.13;;;-1.70;99.90;;;;;;5119211;28;20043;-67
2022/12/10 05:42:59;;;;;;;31.05;15.90;;;-1.70;99.90;;;;;;5118521;28;20048;-67
2022/12/10 05:45:25;;;;;;;28.95;15.32;;;-1.80;99.90;;;;;;5118576;28;20459;-67
2022/12/10 05:47:51;;;;;;;32.72;17.05;;;-1.80;99.90;;;;;;5117919;28;20119;-67
2022/12/10 05:50:16;;;;;;;28.95;16.20;;;-1.80;99.90;;;;;;5116012;28;20052;-67
2022/12/10 05:52:42;;;;;;;30.52;14.95;;;-1.80;99.90;;;;;;5119680;28;20039;-67
2022/12/10 05:55:08;;;;;;;31.75;17.00;;;-1.80;99.90;;;;;;5117265;28;20055;-67
2022/12/10 05:57:36;;;;;;;31.75;17.15;;;-1.80;99.90;;;;;;5118651;28;20050;-67
2022/12/10 06:00:04;;;;;;;30.48;16.30;;;-1.80;99.90;;;;;;5116069;28;20039;-67
2022/12/10 06:02:32;;;;;;;33.35;16.42;;;-1.80;99.90;;;;;;5118068;28;20049;-67
2022/12/10 06:04:58;;;;;;;32.65;16.33;;;-1.80;99.90;;;;;;5119058;28;20063;-67
2022/12/10 06:07:24;;;;;;;32.80;16.48;;;-1.80;99.90;;;;;;5116865;28;20050;-67
2022/12/10 06:09:50;;;;;;;33.60;17.17;;;-1.90;99.90;;;;;;5119412;28;20044;-67
2022/12/10 06:12:16;;;;;;;30.15;15.68;;;-1.80;99.90;;;;;;5116523;28;20036;-67
2022/12/10 06:14:41;;;;;;;32.90;16.90;;;-1.80;99.90;;;;;;5065900;28;20061;-67
2022/12/10 06:17:07;;;;;;;31.67;15.98;;;-1.90;99.90;;;;;;5013028;28;20044;-67
2022/12/10 06:19:33;;;;;;;34.13;17.23;;;-1.80;99.90;;;;;;5014942;28;20628;-67
2022/12/10 06:21:58;;;;;;;32.33;15.25;;;-1.90;99.90;;;;;;5015746;28;20100;-67
2022/12/10 06:24:24;;;;;;;32.88;17.95;;;-1.80;99.90;;;;;;5013888;28;20103;-67
2022/12/10 06:26:50;;;;;;;31.38;17.05;;;-1.90;99.90;;;;;;5014035;28;20041;-67
2022/12/10 06:29:17;;;;;;;33.80;17.40;;;-1.90;99.90;;;;;;5013223;28;20058;-67
2022/12/10 06:31:43;;;;;;;31.10;16.83;;;-1.90;99.90;;;;;;5014709;28;20494;-67
2022/12/10 06:34:09;;;;;;;30.60;15.73;;;-1.80;99.90;;;;;;5012509;28;20214;-67
2022/12/10 06:36:35;;;;;;;32.28;15.52;;;-1.80;99.90;;;;;;5014729;28;20150;-67
2022/12/10 06:39:01;;;;;;;29.67;15.63;;;-2.40;99.90;;;;;;5013671;28;20056;-67
2022/12/10 06:41:27;;;;;;;31.75;16.23;;;-1.80;99.90;;;;;;5013514;28;20045;-67
2022/12/10 06:43:52;;;;;;;30.70;15.82;;;-1.80;99.90;;;;;;5013955;28;20042;-67
2022/12/10 06:46:20;;;;;;;33.95;17.90;;;-1.80;99.90;;;;;;5013233;28;20050;-67
2022/12/10 06:48:46;;;;;;;31.77;16.27;;;-1.80;99.90;;;;;;5015286;28;20042;-67
2022/12/10 06:51:13;;;;;;;29.30;14.88;;;-1.80;99.90;;;;;;5012270;28;20064;-67
2022/12/10 06:53:39;;;;;;;32.28;16.10;;;-1.90;99.90;;;;;;5014535;28;20064;-67
2022/12/10 06:56:06;;;;;;;35.15;17.45;;;-1.90;99.90;;;;;;5013499;28;20077;-67
2022/12/10 06:58:33;;;;;;;32.10;15.98;;;-1.80;99.90;;;;;;5013364;28;20097;-67
2022/12/10 07:01:08;;;;;;;32.47;17.48;;;-1.80;99.90;;;;;;5015323;28;20098;-67
2022/12/10 07:03:34;;;;;;;31.10;16.20;;;-1.80;99.90;;;;;;5011775;28;20069;-67
2022/12/10 07:06:00;;;;;;;31.25;15.88;;;-1.80;99.90;;;;;;5067600;28;20036;-67
2022/12/10 07:08:26;;;;;;;29.90;16.23;;;-1.80;99.90;;;;;;5116470;28;20047;-67
2022/12/10 07:10:53;;;;;;;32.45;16.08;;;-1.80;99.90;;;;;;5117677;28;20054;-67
2022/12/10 07:13:18;;;;;;;35.28;17.30;;;-1.80;99.90;;;;;;5118002;28;20054;-67
2022/12/10 07:15:44;;;;;;;32.25;16.50;;;-1.80;99.90;;;;;;5038612;28;20045;-67
2022/12/10 07:18:10;;;;;;;32.20;17.13;;;-1.80;99.90;;;;;;5033926;28;20347;-67
2022/12/10 07:20:36;;;;;;;34.05;17.48;;;-1.80;99.90;;;;;;5031621;28;20050;-67
2022/12/10 07:23:01;;;;;;;31.42;15.18;;;-1.80;99.90;;;;;;5034922;28;20377;-68
2022/12/10 07:25:27;;;;;;;36.28;17.42;;;-1.80;99.90;;;;;;5033091;28;20124;-67
2022/12/10 07:27:53;;;;;;;31.98;16.75;;;-1.80;99.90;;;;;;5032189;28;20064;-67
2022/12/10 07:30:18;;;;;;;31.52;16.25;;;-1.80;99.90;;;;;;5032599;28;20042;-67
2022/12/10 07:32:44;;;;;;;30.92;16.90;;;-1.80;99.90;;;;;;5032401;28;20132;-67
2022/12/10 07:35:10;;;;;;;34.53;15.95;;;-1.80;99.90;;;;;;5034782;28;20041;-67
2022/12/10 07:37:35;;;;;;;34.15;16.40;;;-1.80;99.90;;;;;;5031990;28;20111;-67
2022/12/10 07:40:01;;;;;;;26.85;15.77;;;-1.80;99.90;;;;;;5033386;28;20041;-67
2022/12/10 07:42:27;;;;;;;30.52;16.17;;;-1.80;99.90;;;;;;5032880;28;20049;-67
2022/12/10 07:44:52;;;;;;;32.13;16.27;;;-1.80;99.90;;;;;;5036300;28;20544;-67
2022/12/10 07:47:19;;;;;;;31.40;16.98;;;-1.80;99.90;;;;;;5035600;28;20049;-67
2022/12/10 07:49:45;;;;;;;32.78;16.30;;;-1.80;99.90;;;;;;5036289;28;20089;-67
2022/12/10 07:52:10;;;;;;;33.92;16.02;;;-1.80;99.90;;;;;;5036425;28;20041;-67
2022/12/10 07:54:36;;;;;;;33.88;17.60;;;-1.80;99.90;;;;;;5035493;28;20037;-67
2022/12/10 07:57:02;;;;;;;30.65;15.32;;;-1.80;99.90;;;;;;5036090;28;20098;-67
2022/12/10 07:59:28;;;;;;;31.77;15.20;;;-1.70;99.90;;;;;;5034450;28;20440;-67
2022/12/10 08:01:53;;;;;;;34.78;17.20;;;-1.70;99.90;;;;;;5037788;28;20067;-67
2022/12/10 08:04:19;;;;;;;33.60;17.52;;;-1.80;99.90;;;;;;5035442;28;20083;-67
2022/12/10 08:06:45;;;;;;;31.95;17.00;;;-1.70;99.90;;;;;;5024784;28;20056;-67
2022/12/10 08:09:12;;;;;;;29.27;15.15;;;-1.70;99.90;;;;;;5016294;28;20102;-68
2022/12/10 08:11:37;;;;;;;33.13;16.60;;;-1.70;99.90;;;;;;4997928;28;20061;-68
2022/12/10 08:14:03;;;;;;;32.95;16.90;;;-1.70;99.90;;;;;;5016747;28;20469;-68
2022/12/10 08:16:30;;;;;;;34.50;17.50;;;-1.60;99.90;;;;;;5015630;28;20046;-68
2022/12/10 08:18:58;;;;;;;32.05;15.73;;;-1.60;99.90;;;;;;5017536;28;20458;-68
2022/12/10 08:21:27;;;;;;;28.10;14.75;;;-1.50;99.90;;;;;;5016457;28;20046;-68
2022/12/10 08:23:54;;;;;;;31.35;16.45;;;-1.50;99.90;;;;;;5015348;28;20058;-68
2022/12/10 08:26:25;;;;;;;33.95;16.65;;;-1.40;99.90;;;;;;5017230;28;20077;-68
2022/12/10 08:28:51;;;;;;;36.78;16.45;;;-1.30;99.90;;;;;;4995076;28;20054;-68
2022/12/10 08:31:19;;;;;;;36.63;17.92;;;-1.30;99.90;;;;;;4996407;28;20066;-68
2022/12/10 08:33:45;;;;;;;37.05;17.38;;;-1.30;99.90;;;;;;4996094;28;20046;-68
2022/12/10 08:36:12;;;;;;;30.95;17.00;;;-1.30;99.90;;;;;;4995869;28;20049;-68
2022/12/10 08:38:39;;;;;;;36.13;17.70;;;-1.20;99.90;;;;;;4995058;28;20058;-68
2022/12/10 08:41:17;;;;;;;30.25;15.55;;;-1.20;99.90;;;;;;4996188;28;20047;-69
2022/12/10 08:43:44;;;;;;;34.67;15.82;;;-1.20;99.90;;;;;;4996621;28;20052;-68
2022/12/10 08:46:12;;;;;;;32.33;16.75;;;-1.20;99.90;;;;;;4993528;28;20050;-68
2022/12/10 08:48:37;;;;;;;31.02;16.88;;;-1.10;99.90;;;;;;4997616;28;20460;-68
2022/12/10 08:51:04;;;;;;;35.00;17.13;;;-1.00;99.90;;;;;;4995790;28;20541;-68
2022/12/10 08:53:30;;;;;;;29.65;14.68;;;-1.00;99.90;;;;;;4996967;28;20095;-69
2022/12/10 08:55:56;;;;;;;33.35;16.35;;;-0.90;99.90;;;;;;4996423;28;20121;-69
2022/12/10 08:58:22;;;;;;;32.15;15.75;;;-0.90;99.90;;;;;;4993979;28;20168;-68
2022/12/10 09:00:49;;;;;;;31.55;16.98;;;-0.90;99.90;;;;;;4997315;28;20050;-68
2022/12/10 09:03:15;;;;;;;30.30;16.75;;;-0.80;99.90;;;;;;4993762;28;20047;-68
2022/12/10 09:05:41;;;;;;;32.45;15.85;;;-0.80;99.90;;;;;;4997748;28;20053;-68
2022/12/10 09:08:07;;;;;;;33.38;16.95;;;-0.80;99.90;;;;;;4997827;28;20048;-68
2022/12/10 09:10:34;;;;;;;33.17;17.27;;;-0.70;99.90;;;;;;5007908;28;20046;-68
2022/12/10 09:13:00;;;;;;;32.28;16.58;;;-0.70;99.90;;;;;;5013535;28;20049;-68
2022/12/10 09:15:26;;;;;;;31.63;16.58;;;-0.70;99.90;;;;;;5013563;28;20053;-69
2022/12/10 09:17:51;;;;;;;32.70;16.77;;;-0.70;99.90;;;;;;5016298;28;20103;-68
2022/12/10 09:20:17;;;;;;;32.15;17.33;;;-0.60;99.90;;;;;;5013899;28;20353;-68
2022/12/10 09:22:43;;;;;;;33.95;17.40;;;-0.50;99.90;;;;;;5015116;28;20057;-69
2022/12/10 09:25:15;;;;;;;35.85;17.35;;;-0.50;99.90;;;;;;5012917;28;20046;-69
2022/12/10 09:27:41;;;;;;;30.38;15.88;;;-0.30;99.90;;;;;;5082384;28;20096;-69
2022/12/10 09:30:07;;;;;;;33.30;18.02;;;-0.20;99.90;;;;;;5118192;28;20059;-68
2022/12/10 09:32:33;;;;;;;28.98;16.40;;;-0.20;99.90;;;;;;5116771;28;20059;-68
2022/12/10 09:34:59;;;;;;;32.90;15.45;;;-0.20;99.90;;;;;;5117995;28;20498;-68
2022/12/10 09:37:25;;;;;;;28.33;14.77;;;-0.20;99.90;;;;;;5115310;28;20055;-68
2022/12/10 09:39:50;;;;;;;33.10;16.23;;;-0.10;99.90;;;;;;5119373;28;20043;-68
2022/12/10 09:42:47;;;;;;;30.02;16.85;;;-0.10;99.90;;;;;;5098650;28;20075;-68
2022/12/10 09:45:35;;;;;;;31.50;16.10;;;0.00;99.90;;;;;;5118261;28;20557;-68
2022/12/10 09:48:27;;;;;;;30.02;15.15;;;0.10;99.90;;;;;;5084281;28;20062;-68
2022/12/10 09:51:07;;;;;;;31.95;16.30;;;0.20;99.90;;;;;;5023405;28;20403;-68
2022/12/10 09:53:35;;;;;;;31.80;16.17;;;0.20;99.90;;;;;;5013855;28;20053;-68
2022/12/10 09:56:03;;;;;;;27.65;15.30;;;0.30;99.90;;;;;;5014221;28;20079;-68
2022/12/10 09:58:28;;;;;;;32.92;17.08;;;0.40;99.90;;;;;;5085548;28;20104;-68
2022/12/10 10:01:02;;;;;;;31.52;15.95;;;0.40;99.90;;;;;;5084475;28;20083;-68
2022/12/10 10:03:36;;;;;;;30.67;15.82;;;0.50;99.90;;;;;;5002477;28;20038;-68
2022/12/10 10:06:03;;;;;;;29.58;14.48;;;0.50;99.90;;;;;;5022558;28;20049;-68
2022/12/10 10:08:40;;;;;;;30.17;16.48;;;0.70;99.90;;;;;;5115248;28;20064;-67
2022/12/10 10:11:13;;;;;;;30.02;16.05;;;1.00;99.90;;;;;;5116168;28;20051;-69
2022/12/10 10:13:56;;;;;;;30.25;15.77;;;1.30;99.90;;;;;;5118743;28;20051;-68
2022/12/10 10:16:30;;;;;;;33.08;16.27;;;1.20;99.90;;;;;;5114941;28;20051;-69
2022/12/10 10:19:01;;;;;;;28.58;15.90;;;0.90;99.90;;;;;;5117899;28;20078;-68
2022/12/10 10:21:35;;;;;;;28.25;15.13;;;0.60;99.90;;;;;;5098924;28;20090;-68
2022/12/10 10:24:02;;;;;;;33.70;17.13;;;0.50;99.90;;;;;;5115675;28;20108;-69
2022/12/10 10:26:28;;;;;;;35.38;18.35;;;0.40;99.90;;;;;;5118562;28;20044;-68
2022/12/10 10:28:59;;;;;;;30.50;17.45;;;0.30;99.90;;;;;;5115153;28;20456;-68
2022/12/10 10:31:28;;;;;;;30.17;17.50;;;0.70;99.90;;;;;;5118727;28;20056;-68
2022/12/10 10:34:00;;;;;;;30.88;16.55;;;0.30;99.90;;;;;;5116732;28;20036;-68
2022/12/10 10:36:35;;;;;;;32.58;17.30;;;0.60;99.90;;;;;;5115967;28;20131;-68
2022/12/10 10:39:19;;;;;;;28.80;16.35;;;0.20;99.90;;;;;;5116138;28;20049;-68
2022/12/10 10:41:51;;;;;;;30.70;16.50;;;0.60;99.90;;;;;;5114300;28;20059;-68
2022/12/10 10:44:20;;;;;;;28.58;15.95;;;1.00;99.90;;;;;;5117251;28;20055;-68
2022/12/10 10:46:48;;;;;;;32.08;17.20;;;1.20;99.90;;;;;;5115279;28;20055;-68
2022/12/10 10:49:25;;;;;;;35.58;17.83;;;1.10;99.90;;;;;;5115721;28;20103;-69
2022/12/10 10:52:04;;;;;;;29.85;17.27;;;1.10;99.90;;;;;;5116128;28;20071;-68
2022/12/10 10:54:42;;;;;;;28.45;15.85;;;0.90;99.90;;;;;;5099616;28;20422;-68
2022/12/10 10:57:34;;;;;;;29.13;16.05;;;0.70;99.90;;;;;;5115750;28;20155;-69
2022/12/10 11:00:22;;;;;;;33.03;17.10;;;0.50;99.90;;;;;;5116897;28;20055;-69
2022/12/10 11:02:48;;;;;;;29.98;16.20;;;0.40;99.90;;;;;;5011646;28;20512;-68
2022/12/10 11:05:26;;;;;;;33.97;17.88;;;0.20;99.90;;;;;;5013239;28;20050;-68
2022/12/10 11:08:04;;;;;;;37.42;19.75;;;0.10;99.90;;;;;;5032118;28;20126;-68
2022/12/10 11:10:30;;;;;;;34.75;18.60;;;0.10;99.90;;;;;;5032247;28;20053;-69
2022/12/10 11:13:04;;;;;;;38.83;20.42;;;0.00;99.90;;;;;;5031966;28;20045;-69
2022/12/10 11:15:41;;;;;;;34.20;20.73;;;0.00;99.90;;;;;;5100662;28;20130;-68
2022/12/10 11:18:32;;;;;;;37.90;19.83;;;-0.10;99.90;;;;;;5118367;28;20052;-68
2022/12/10 11:21:04;;;;;;;34.42;18.85;;;-0.20;99.90;;;;;;5118792;28;20051;-68
2022/12/10 11:23:38;;;;;;;33.05;17.52;;;-0.20;99.90;;;;;;5120067;28;20048;-68
2022/12/10 11:26:24;;;;;;;37.88;20.75;;;-0.20;99.90;;;;;;5103364;28;20044;-68
2022/12/10 11:29:15;;;;;;;38.92;19.83;;;-0.20;99.90;;;;;;5100273;28;20156;-68
2022/12/10 11:31:56;;;;;;;37.13;20.50;;;-0.20;99.90;;;;;;5121806;28;20077;-69
2022/12/10 11:34:46;;;;;;;36.00;19.27;;;0.70;99.90;;;;;;5118925;28;20062;-68
2022/12/10 11:37:30;;;;;;;39.63;19.35;;;-0.20;99.90;;;;;;5118168;28;20108;-69
2022/12/10 11:40:17;;;;;;;35.85;18.38;;;-0.10;99.90;;;;;;5120811;28;20039;-69
2022/12/10 11:43:11;;;;;;;42.75;19.73;;;-0.10;99.90;;;;;;5118024;28;20141;-68
2022/12/10 11:45:53;;;;;;;38.17;18.80;;;-0.10;99.90;;;;;;5118009;28;20055;-68
2022/12/10 11:48:47;;;;;;;35.97;18.70;;;-0.10;99.90;;;;;;5120670;28;20044;-68
2022/12/10 11:51:39;;;;;;;35.45;17.85;;;-0.10;99.90;;;;;;5120080;28;20054;-68
2022/12/10 11:54:26;;;;;;;37.78;19.65;;;-0.20;99.90;;;;;;5090669;28;20055;-68
2022/12/10 11:57:14;;;;;;;35.70;17.55;;;-0.30;99.90;;;;;;5119451;28;20055;-68
2022/12/10 11:59:58;;;;;;;33.63;19.23;;;-0.30;99.90;;;;;;5118231;28;20134;-68
2022/12/10 12:02:38;;;;;;;38.30;18.92;;;-0.30;99.90;;;;;;5020550;28;20065;-68
2022/12/10 12:05:23;;;;;;;35.67;17.92;;;-0.30;99.90;;;;;;5005048;28;20046;-68
2022/12/10 12:08:17;;;;;;;40.03;19.83;;;-0.30;99.90;;;;;;5003574;28;20054;-68
2022/12/10 12:10:43;;;;;;;33.00;17.92;;;-0.30;99.90;;;;;;4995484;28;20050;-68
2022/12/10 12:13:19;;;;;;;37.03;18.48;;;-0.10;99.90;;;;;;4995968;28;20058;-68
2022/12/10 12:15:49;;;;;;;37.42;18.23;;;-0.40;99.90;;;;;;5013029;28;20745;-68
2022/12/10 12:18:23;;;;;;;38.47;19.98;;;-0.30;99.90;;;;;;5015997;28;20057;-69
2022/12/10 12:20:57;;;;;;;38.63;18.38;;;-0.50;99.90;;;;;;5014050;28;20066;-69
2022/12/10 12:23:28;;;;;;;37.10;17.98;;;-0.50;99.90;;;;;;5015396;28;20665;-69
2022/12/10 12:26:12;;;;;;;38.40;18.85;;;-0.50;99.90;;;;;;5016498;28;20042;-68
2022/12/10 12:28:47;;;;;;;40.08;18.95;;;-0.40;99.90;;;;;;5012854;28;20058;-69
2022/12/10 12:31:41;;;;;;;36.28;18.73;;;-0.40;99.90;;;;;;5015245;28;20058;-69
2022/12/10 12:34:29;;;;;;;36.90;17.10;;;-0.40;99.90;;;;;;5015861;28;20149;-68
2022/12/10 12:36:55;;;;;;;36.97;18.42;;;-0.50;99.90;;;;;;5014206;28;20076;-69
2022/12/10 12:39:33;;;;;;;40.33;18.23;;;-0.50;99.90;;;;;;5017329;28;20576;-69
2022/12/10 12:42:36;;;;;;;36.63;18.25;;;-0.50;99.90;;;;;;5012908;28;20143;-69
2022/12/10 12:45:22;;;;;;;40.10;17.48;;;-0.50;99.90;;;;;;5016483;28;20046;-69
2022/12/10 12:47:54;;;;;;;;;;;-0.60;99.90;;;;;;5017095;28;20046;-68
2022/12/10 12:50:48;;;;;;;38.17;18.33;;;-0.60;99.90;;;;;;5014367;28;19935;-68
2022/12/10 12:53:16;;;;;;;39.00;16.90;;;-0.70;99.90;;;;;;5017288;28;20053;-68
2022/12/10 12:56:08;;;;;;;34.90;17.95;;;-0.70;99.90;;;;;;5015576;28;20046;-68